createdAt,value
2022-08-07T00:02:36.831Z,5.35
2022-08-07T00:04:57.782Z,4.93
2022-08-07T00:07:27.434Z,5.10
2022-08-07T00:10:19.331Z,4.95
2022-08-07T00:13:00.267Z,5.28
2022-08-07T00:15:37.967Z,5.78
2022-08-07T00:18:19.862Z,5.63
2022-08-07T00:20:52.421Z,6.28
2022-08-07T00:23:21.080Z,4.95
2022-08-07T00:25:52.564Z,5.60
2022-08-07T00:28:31.591Z,5.18
2022-08-07T00:31:04.323Z,6.38
2022-08-07T00:33:34.994Z,5.32
2022-08-07T00:36:03.006Z,5.78
2022-08-07T00:38:33.231Z,6.30
2022-08-07T00:41:05.065Z,5.97
2022-08-07T00:44:01.780Z,6.07
2022-08-07T00:46:26.145Z,6.30
2022-08-07T00:48:54.062Z,7.43
2022-08-07T00:51:22.350Z,6.82
2022-08-07T00:53:56.262Z,6.28
2022-08-07T00:56:30.162Z,5.97
2022-08-07T00:59:01.945Z,6.15
2022-08-07T01:01:30.182Z,5.60
2022-08-07T01:04:12.261Z,6.57
2022-08-07T01:06:52.309Z,6.47
2022-08-07T01:10:05.227Z,5.82
2022-08-07T01:12:29.779Z,6.22
2022-08-07T01:15:01.151Z,6.32
2022-08-07T01:17:30.570Z,6.97
2022-08-07T01:20:08.847Z,5.95
2022-08-07T01:22:41.477Z,6.45
2022-08-07T01:25:54.667Z,6.90
2022-08-07T01:28:13.607Z,6.60
2022-08-07T01:30:43.128Z,6.57
2022-08-07T01:33:13.370Z,6.63
2022-08-07T01:35:53.710Z,6.43
2022-08-07T01:38:25.763Z,7.47
2022-08-07T01:41:01.998Z,7.10
2022-08-07T01:43:38.191Z,6.88
2022-08-07T01:46:12.150Z,6.65
2022-08-07T01:48:46.585Z,7.78
2022-08-07T01:52:01.521Z,6.55
2022-08-07T01:54:33.200Z,6.88
2022-08-07T01:57:08.416Z,6.72
2022-08-07T01:59:44.047Z,6.57
2022-08-07T02:02:33.051Z,7.20
2022-08-07T02:05:16.119Z,7.30
2022-08-07T02:08:04.084Z,7.07
2022-08-07T02:10:42.218Z,6.43
2022-08-07T02:13:12.914Z,6.70
2022-08-07T02:15:54.785Z,6.85
2022-08-07T02:18:25.871Z,7.15
2022-08-07T02:20:58.835Z,6.18
2022-08-07T02:23:27.839Z,7.25
2022-08-07T02:26:26.679Z,7.53
2022-08-07T02:28:52.214Z,7.05
2022-08-07T02:31:28.933Z,7.28
2022-08-07T02:34:03.113Z,6.57
2022-08-07T02:36:35.320Z,6.78
2022-08-07T02:39:17.030Z,6.20
2022-08-07T02:42:01.092Z,7.18
2022-08-07T02:44:34.746Z,6.65
2022-08-07T02:47:06.229Z,6.70
2022-08-07T02:49:57.965Z,7.50
2022-08-07T02:52:33.606Z,7.75
2022-08-07T02:55:27.726Z,7.15
2022-08-07T02:58:02.795Z,6.47
2022-08-07T03:00:34.314Z,7.65
2022-08-07T03:03:08.262Z,6.10
2022-08-07T03:05:45.251Z,7.35
2022-08-07T03:08:14.267Z,7.22
2022-08-07T03:10:47.295Z,7.45
2022-08-07T03:13:21.498Z,7.00
2022-08-07T03:15:56.454Z,7.00
2022-08-07T03:18:34.643Z,7.10
2022-08-07T03:21:08.783Z,7.13
2022-08-07T03:24:19.527Z,7.20
2022-08-07T03:26:32.446Z,7.05
2022-08-07T03:29:11.094Z,6.40
2022-08-07T03:31:46.189Z,7.05
2022-08-07T03:34:21.954Z,6.55
2022-08-07T03:36:57.280Z,6.80
2022-08-07T03:39:59.901Z,7.07
2022-08-07T03:42:17.007Z,6.75
2022-08-07T03:44:53.341Z,6.88
2022-08-07T03:47:22.693Z,6.93
2022-08-07T03:49:52.560Z,6.50
2022-08-07T03:52:27.282Z,7.32
2022-08-07T03:55:06.120Z,7.15
2022-08-07T03:58:34.296Z,7.15
2022-08-07T04:00:35.364Z,7.55
2022-08-07T04:03:05.058Z,6.68
2022-08-07T04:05:40.332Z,7.03
2022-08-07T04:08:18.362Z,7.15
2022-08-07T04:10:53.821Z,7.72
2022-08-07T04:14:10.806Z,7.80
2022-08-07T04:16:31.028Z,7.15
2022-08-07T04:19:12.413Z,6.85
2022-08-07T04:21:58.861Z,7.00
2022-08-07T04:24:34.182Z,8.10
2022-08-07T04:27:20.355Z,8.57
2022-08-07T04:30:02.409Z,8.18
2022-08-07T04:32:44.878Z,7.68
2022-08-07T04:35:16.742Z,7.57
2022-08-07T04:38:03.711Z,8.30
2022-08-07T04:40:34.330Z,7.60
2022-08-07T04:43:03.695Z,8.05
2022-08-07T04:46:00.231Z,8.02
2022-08-07T04:48:40.391Z,7.40
2022-08-07T04:51:27.189Z,8.00
2022-08-07T04:54:06.161Z,8.32
2022-08-07T04:58:14.633Z,7.88
2022-08-07T05:00:10.907Z,8.00
2022-08-07T05:02:32.252Z,8.82
2022-08-07T05:05:11.492Z,7.45
2022-08-07T05:07:59.941Z,8.77
2022-08-07T05:10:34.285Z,8.18
2022-08-07T05:14:44.334Z,7.20
2022-08-07T05:15:59.011Z,7.35
2022-08-07T05:18:30.052Z,7.47
2022-08-07T05:21:05.453Z,7.65
2022-08-07T05:23:40.947Z,7.90
2022-08-07T05:26:24.301Z,8.27
2022-08-07T05:29:04.420Z,7.45
2022-08-07T05:31:38.414Z,7.40
2022-08-07T05:34:13.756Z,7.28
2022-08-07T05:36:49.001Z,9.13
2022-08-07T05:40:14.361Z,8.73
2022-08-07T05:42:15.328Z,7.28
2022-08-07T05:45:14.200Z,6.72
2022-08-07T05:48:01.994Z,7.05
2022-08-07T05:50:39.516Z,6.57
2022-08-07T05:54:09.628Z,7.78
2022-08-07T05:56:05.810Z,7.15
2022-08-07T05:58:39.218Z,6.88
2022-08-07T06:01:11.956Z,7.00
2022-08-07T06:04:01.388Z,7.53
2022-08-07T06:06:37.130Z,9.27
2022-08-07T06:09:10.028Z,7.55
2022-08-07T06:11:42.414Z,7.97
2022-08-07T06:14:21.363Z,6.88
2022-08-07T06:16:59.417Z,6.70
2022-08-07T06:19:52.391Z,6.78
2022-08-07T06:22:27.329Z,8.30
2022-08-07T06:25:10.771Z,9.55
2022-08-07T06:27:44.079Z,6.07
2022-08-07T06:30:35.206Z,6.00
2022-08-07T06:33:15.676Z,7.53
2022-08-07T06:35:48.158Z,6.18
2022-08-07T06:38:35.104Z,7.30
2022-08-07T06:41:09.803Z,6.18
2022-08-07T06:43:46.117Z,5.30
2022-08-07T06:46:31.146Z,6.05
2022-08-07T06:49:04.491Z,6.85
2022-08-07T06:51:43.447Z,4.70
2022-08-07T06:55:33.521Z,5.60
2022-08-07T06:57:11.677Z,4.70
2022-08-07T07:00:13.311Z,5.57
2022-08-07T07:02:53.233Z,6.53
2022-08-07T07:06:03.103Z,5.30
2022-08-07T07:08:18.470Z,5.43
2022-08-07T07:10:54.925Z,3.80
2022-08-07T07:13:41.647Z,4.30
2022-08-07T07:16:27.524Z,4.20
2022-08-07T07:19:55.311Z,4.78
2022-08-07T07:22:05.152Z,4.22
2022-08-07T07:25:02.608Z,4.55
2022-08-07T07:27:58.475Z,3.90
2022-08-07T07:30:38.561Z,4.55
2022-08-07T07:33:11.692Z,4.80
2022-08-07T07:35:43.798Z,4.22
2022-08-07T07:38:24.561Z,5.43
2022-08-07T07:41:00.041Z,3.97
2022-08-07T07:43:47.891Z,3.67
2022-08-07T07:46:49.962Z,3.63
2022-08-07T07:50:34.694Z,5.03
2022-08-07T07:52:04.686Z,3.55
2022-08-07T07:54:34.549Z,4.25
2022-08-07T07:57:05.873Z,4.38
2022-08-07T07:59:52.882Z,4.38
2022-08-07T08:02:34.007Z,3.90
2022-08-07T08:05:04.978Z,4.57
2022-08-07T08:07:35.728Z,4.00
2022-08-07T08:10:14.894Z,4.18
2022-08-07T08:13:02.886Z,4.00
2022-08-07T08:15:57.721Z,4.18
2022-08-07T08:18:28.494Z,3.55
2022-08-07T08:20:57.886Z,3.33
2022-08-07T08:23:43.842Z,3.63
2022-08-07T08:26:33.810Z,3.80
2022-08-07T08:29:04.754Z,3.60
2022-08-07T08:32:17.522Z,4.38
2022-08-07T08:34:37.934Z,3.70
2022-08-07T08:37:09.889Z,4.00
2022-08-07T08:39:58.712Z,4.03
2022-08-07T08:42:31.662Z,3.15
2022-08-07T08:45:13.346Z,3.67
2022-08-07T08:47:52.099Z,3.60
2022-08-07T08:50:34.797Z,3.63
2022-08-07T08:53:25.694Z,3.75
2022-08-07T08:56:00.236Z,3.90
2022-08-07T08:58:36.715Z,3.25
2022-08-07T09:01:15.113Z,3.40
2022-08-07T09:03:55.965Z,3.40
2022-08-07T09:06:38.391Z,6.47
2022-08-07T09:09:29.755Z,3.40
2022-08-07T09:12:31.341Z,3.80
2022-08-07T09:16:25.930Z,3.53
2022-08-07T09:18:22.523Z,3.45
2022-08-07T09:21:00.994Z,3.67
2022-08-07T09:24:30.646Z,4.10
2022-08-07T09:26:47.930Z,3.92
2022-08-07T09:30:03.322Z,3.60
2022-08-07T09:32:26.672Z,3.67
2022-08-07T09:36:02.927Z,3.85
2022-08-07T09:38:00.480Z,3.83
2022-08-07T09:40:39.074Z,3.50
2022-08-07T09:44:03.647Z,7.97
2022-08-07T09:47:42.525Z,4.50
2022-08-07T09:50:02.070Z,4.05
2022-08-07T09:52:33.799Z,4.07
2022-08-07T09:55:28.757Z,5.07
2022-08-07T09:58:32.608Z,4.60
2022-08-07T10:01:50.971Z,3.90
2022-08-07T10:04:28.074Z,4.38
2022-08-07T10:07:25.913Z,3.92
2022-08-07T10:10:21.745Z,3.88
2022-08-07T10:13:10.954Z,12.10
2022-08-07T10:15:55.865Z,7.63
2022-08-07T10:18:42.656Z,3.92
2022-08-07T10:21:50.624Z,3.22
2022-08-07T10:24:30.998Z,3.33
2022-08-07T10:27:13.945Z,3.78
2022-08-07T10:30:06.251Z,3.40
2022-08-07T10:33:02.733Z,3.33
2022-08-07T10:35:56.534Z,3.40
2022-08-07T10:38:48.169Z,3.92
2022-08-07T10:41:51.587Z,3.72
2022-08-07T10:44:19.324Z,3.55
2022-08-07T10:47:02.780Z,3.90
2022-08-07T10:49:49.832Z,3.88
2022-08-07T10:52:31.746Z,4.50
2022-08-07T10:55:26.949Z,3.33
2022-08-07T10:58:09.386Z,3.70
2022-08-07T11:00:50.439Z,3.65
2022-08-07T11:03:37.763Z,4.00
2022-08-07T11:06:27.143Z,3.95
2022-08-07T11:09:02.793Z,3.72
2022-08-07T11:11:35.609Z,3.25
2022-08-07T11:14:44.046Z,3.33
2022-08-07T11:17:02.192Z,3.47
2022-08-07T11:19:41.261Z,3.63
2022-08-07T11:22:19.166Z,4.32
2022-08-07T11:25:06.707Z,3.00
2022-08-07T11:28:02.628Z,3.53
2022-08-07T11:30:42.280Z,3.47
2022-08-07T11:33:17.788Z,3.20
2022-08-07T11:36:01.754Z,3.30
2022-08-07T11:38:40.620Z,3.28
2022-08-07T11:41:22.293Z,3.85
2022-08-07T11:44:11.849Z,3.47
2022-08-07T11:46:57.338Z,3.45
2022-08-07T11:50:31.586Z,3.15
2022-08-07T11:52:56.590Z,3.63
2022-08-07T11:56:26.136Z,2.97
2022-08-07T11:58:45.832Z,3.35
2022-08-07T12:01:53.220Z,3.50
2022-08-07T12:04:37.479Z,3.70
2022-08-07T12:07:20.210Z,3.30
2022-08-07T12:10:05.859Z,3.42
2022-08-07T12:12:38.497Z,3.40
2022-08-07T12:15:35.830Z,2.97
2022-08-07T12:18:11.246Z,2.88
2022-08-07T12:20:49.348Z,3.20
2022-08-07T12:24:05.757Z,3.20
2022-08-07T12:26:35.469Z,2.83
2022-08-07T12:29:17.073Z,3.03
2022-08-07T12:32:03.861Z,3.40
2022-08-07T12:34:35.536Z,3.20
2022-08-07T12:37:08.308Z,2.92
2022-08-07T12:39:52.026Z,3.30
2022-08-07T12:42:27.259Z,3.67
2022-08-07T12:45:04.285Z,3.45
2022-08-07T12:47:41.448Z,3.00
2022-08-07T12:50:33.901Z,3.45
2022-08-07T12:53:18.641Z,2.80
2022-08-07T12:56:03.665Z,3.05
2022-08-07T12:58:39.634Z,3.75
2022-08-07T13:01:21.821Z,3.22
2022-08-07T13:04:18.921Z,3.13
2022-08-07T13:08:12.772Z,2.95
2022-08-07T13:10:38.290Z,3.53
2022-08-07T13:13:48.591Z,3.53
2022-08-07T13:16:28.083Z,2.85
2022-08-07T13:19:21.719Z,2.78
2022-08-07T13:22:02.066Z,3.60
2022-08-07T13:24:52.236Z,3.20
2022-08-07T13:27:24.828Z,3.20
2022-08-07T13:30:19.758Z,3.17
2022-08-07T13:34:14.409Z,3.50
2022-08-07T13:36:05.848Z,3.30
2022-08-07T13:38:45.367Z,3.25
2022-08-07T13:41:25.495Z,3.50
2022-08-07T13:43:58.544Z,3.28
2022-08-07T13:46:33.840Z,2.70
2022-08-07T13:50:35.668Z,2.78
2022-08-07T13:52:22.767Z,3.17
2022-08-07T13:54:49.319Z,3.00
2022-08-07T13:57:22.494Z,3.03
2022-08-07T13:59:55.746Z,3.58
2022-08-07T14:02:29.722Z,3.33
2022-08-07T14:05:12.316Z,3.40
2022-08-07T14:08:00.566Z,2.90
2022-08-07T14:10:42.099Z,3.20
2022-08-07T14:13:14.092Z,3.08
2022-08-07T14:15:50.861Z,3.10
2022-08-07T14:18:29.351Z,3.40
2022-08-07T14:21:07.854Z,3.28
2022-08-07T14:24:01.249Z,2.90
2022-08-07T14:26:36.482Z,3.08
2022-08-07T14:30:09.307Z,3.35
2022-08-07T14:32:00.539Z,3.55
2022-08-07T14:34:30.788Z,3.25
2022-08-07T14:37:02.935Z,4.55
2022-08-07T14:40:17.258Z,3.08
2022-08-07T14:42:25.884Z,3.10
2022-08-07T14:44:59.921Z,2.90
2022-08-07T14:47:32.523Z,3.33
2022-08-07T14:53:07.715Z,2.92
2022-08-07T14:55:47.907Z,3.20
2022-08-07T14:58:28.058Z,3.20
2022-08-07T15:00:59.188Z,2.85
2022-08-07T15:03:52.609Z,3.13
2022-08-07T15:06:25.090Z,3.20
2022-08-07T15:08:55.642Z,3.80
2022-08-07T15:11:54.152Z,3.13
2022-08-07T15:14:21.064Z,3.28
2022-08-07T15:16:59.055Z,3.08
2022-08-07T15:22:33.290Z,3.38
2022-08-07T15:25:19.362Z,3.10
2022-08-07T15:28:33.092Z,3.00
2022-08-07T15:31:05.115Z,2.50
2022-08-07T15:33:33.493Z,2.75
2022-08-07T15:36:05.045Z,2.78
2022-08-07T15:38:51.337Z,2.80
2022-08-07T15:42:42.347Z,2.22
2022-08-07T15:44:15.046Z,2.67
2022-08-07T15:46:52.050Z,2.58
2022-08-07T15:50:05.740Z,2.70
2022-08-07T15:52:20.836Z,2.75
2022-08-07T15:54:51.386Z,2.50
2022-08-07T15:57:40.250Z,2.60
2022-08-07T16:00:31.115Z,2.53
2022-08-07T16:03:05.139Z,2.65
2022-08-07T16:05:34.267Z,2.65
2022-08-07T16:08:31.179Z,2.67
2022-08-07T16:11:02.712Z,2.70
2022-08-07T16:13:58.754Z,2.58
2022-08-07T16:16:43.346Z,2.50
2022-08-07T16:19:42.701Z,2.63
2022-08-07T16:23:09.878Z,2.83
2022-08-07T16:25:56.637Z,2.55
2022-08-07T16:30:07.734Z,2.65
2022-08-07T16:31:51.527Z,2.47
2022-08-07T16:34:48.089Z,2.60
2022-08-07T16:38:06.695Z,2.53
2022-08-07T16:41:12.929Z,2.50
2022-08-07T16:44:47.354Z,2.55
2022-08-07T16:47:45.181Z,2.60
2022-08-07T16:50:38.724Z,2.25
2022-08-07T16:54:01.797Z,2.67
2022-08-07T16:56:19.668Z,2.67
2022-08-07T16:59:15.277Z,2.80
2022-08-07T17:01:55.544Z,2.88
2022-08-07T17:04:36.946Z,2.80
2022-08-07T17:07:28.130Z,2.70
2022-08-07T17:10:09.334Z,2.50
2022-08-07T17:13:01.434Z,2.58
2022-08-07T17:15:43.840Z,2.72
2022-08-07T17:18:18.972Z,2.88
2022-08-07T17:20:48.507Z,3.00
2022-08-07T17:23:37.947Z,2.35
2022-08-07T17:26:22.641Z,2.33
2022-08-07T17:30:12.743Z,2.97
2022-08-07T17:32:30.423Z,2.38
2022-08-07T17:35:51.468Z,2.80
2022-08-07T17:38:08.858Z,2.50
2022-08-07T17:40:50.882Z,2.70
2022-08-07T17:44:02.822Z,2.72
2022-08-07T17:46:22.706Z,2.75
2022-08-07T17:49:09.506Z,3.08
2022-08-07T17:52:00.137Z,2.90
2022-08-07T17:54:39.665Z,3.40
2022-08-07T17:57:21.279Z,2.78
2022-08-07T17:59:53.747Z,4.05
2022-08-07T18:02:30.986Z,3.13
2022-08-07T18:05:20.637Z,2.90
2022-08-07T18:08:00.841Z,2.83
2022-08-07T18:12:07.185Z,3.25
2022-08-07T18:13:41.485Z,4.10
2022-08-07T18:16:15.429Z,2.90
2022-08-07T18:21:07.069Z,2.70
2022-08-07T18:22:06.253Z,3.83
2022-08-07T18:24:45.956Z,3.13
2022-08-07T18:27:50.120Z,2.78
2022-08-07T18:30:31.582Z,2.55
2022-08-07T18:33:38.986Z,2.67
2022-08-07T18:36:33.736Z,2.78
2022-08-07T18:40:06.871Z,2.70
2022-08-07T18:42:13.347Z,2.35
2022-08-07T18:48:00.391Z,2.35
2022-08-07T18:50:48.577Z,2.72
2022-08-07T18:53:36.597Z,2.60
2022-08-07T18:56:14.795Z,2.65
2022-08-07T18:59:04.406Z,2.50
2022-08-07T19:02:17.414Z,2.50
2022-08-07T19:04:54.686Z,3.03
2022-08-07T19:07:34.379Z,2.92
2022-08-07T19:10:10.945Z,2.72
2022-08-07T19:12:53.705Z,3.17
2022-08-07T19:16:05.362Z,2.90
2022-08-07T19:18:34.027Z,2.50
2022-08-07T19:21:42.845Z,3.10
2022-08-07T19:24:02.627Z,3.40
2022-08-07T19:27:01.676Z,4.18
2022-08-07T19:31:06.121Z,3.47
2022-08-07T19:32:42.260Z,4.38
2022-08-07T19:35:12.222Z,2.90
2022-08-07T19:37:56.221Z,3.30
2022-08-07T19:40:31.422Z,4.80
2022-08-07T19:43:02.765Z,3.70
2022-08-07T19:46:06.183Z,3.30
2022-08-07T19:48:24.525Z,3.45
2022-08-07T19:50:54.619Z,3.38
2022-08-07T19:54:33.257Z,3.58
2022-08-07T19:56:58.613Z,3.05
2022-08-07T19:59:08.556Z,3.28
2022-08-07T20:01:56.009Z,3.28
2022-08-07T20:04:31.478Z,3.10
2022-08-07T20:07:10.050Z,3.58
2022-08-07T20:10:36.677Z,3.60
2022-08-07T20:12:35.952Z,3.03
2022-08-07T20:15:15.519Z,3.92
2022-08-07T20:18:01.764Z,3.72
2022-08-07T20:20:33.717Z,3.53
2022-08-07T20:23:23.238Z,3.53
2022-08-07T20:25:55.066Z,3.63
2022-08-07T20:28:29.980Z,3.10
2022-08-07T20:30:59.857Z,3.20
2022-08-07T20:33:36.659Z,3.70
2022-08-07T20:36:07.666Z,3.38
2022-08-07T20:38:53.300Z,3.35
2022-08-07T20:41:23.471Z,3.22
2022-08-07T20:43:57.298Z,3.63
2022-08-07T20:46:31.350Z,3.30
2022-08-07T20:50:01.088Z,3.63
2022-08-07T20:51:51.456Z,3.30
2022-08-07T20:54:29.870Z,3.15
2022-08-07T20:57:02.832Z,3.40
2022-08-07T21:00:08.382Z,3.47
2022-08-07T21:02:54.480Z,3.30
2022-08-07T21:05:42.664Z,3.50
2022-08-07T21:08:15.423Z,3.58
2022-08-07T21:10:46.835Z,3.05
2022-08-07T21:13:24.568Z,3.20
2022-08-07T21:16:09.126Z,3.45
2022-08-07T21:18:40.986Z,3.50
2022-08-07T21:21:10.060Z,3.15
2022-08-07T21:23:50.103Z,3.65
2022-08-07T21:26:45.927Z,3.72
2022-08-07T21:29:18.467Z,3.60
2022-08-07T21:32:47.314Z,3.65
2022-08-07T21:34:50.327Z,5.10
2022-08-07T21:37:24.148Z,3.60
2022-08-07T21:39:58.720Z,4.00
2022-08-07T21:42:42.507Z,4.20
2022-08-07T21:46:03.384Z,3.83
2022-08-07T21:48:29.200Z,4.63
2022-08-07T21:51:19.488Z,4.20
2022-08-07T21:53:54.232Z,3.78
2022-08-07T21:56:37.710Z,4.45
2022-08-07T21:59:31.333Z,4.25
2022-08-07T22:02:24.375Z,3.78
2022-08-07T22:04:56.336Z,3.92
2022-08-07T22:07:42.824Z,4.30
2022-08-07T22:10:20.107Z,3.92
2022-08-07T22:12:53.617Z,4.25
2022-08-07T22:16:43.304Z,4.03
2022-08-07T22:18:22.724Z,4.50
2022-08-07T22:20:55.336Z,4.38
2022-08-07T22:23:29.545Z,4.63
2022-08-07T22:26:05.915Z,4.90
2022-08-07T22:28:48.310Z,4.47
2022-08-07T22:31:45.152Z,3.83
2022-08-07T22:34:29.230Z,4.30
2022-08-07T22:37:09.363Z,3.78
2022-08-07T22:39:52.895Z,3.40
2022-08-07T22:42:25.905Z,4.13
2022-08-07T22:44:58.986Z,4.78
2022-08-07T22:47:52.332Z,4.00
2022-08-07T22:50:35.607Z,4.00
2022-08-07T22:53:18.858Z,3.90
2022-08-07T22:56:08.931Z,3.70
2022-08-07T22:59:05.011Z,4.00
2022-08-07T23:01:59.272Z,3.75
2022-08-07T23:06:08.525Z,3.50
2022-08-07T23:08:00.883Z,3.67
2022-08-07T23:10:42.575Z,3.30
2022-08-07T23:13:49.009Z,3.60
2022-08-07T23:16:54.599Z,3.83
2022-08-07T23:19:51.452Z,3.67
2022-08-07T23:22:34.044Z,3.63
2022-08-07T23:25:12.374Z,3.75
2022-08-07T23:28:20.233Z,4.25
2022-08-07T23:31:06.730Z,3.50
2022-08-07T23:34:22.553Z,3.88
2022-08-07T23:37:19.667Z,3.38
2022-08-07T23:39:48.774Z,3.30
2022-08-07T23:42:34.351Z,3.20
2022-08-07T23:45:33.120Z,4.25
2022-08-07T23:48:25.135Z,3.40
2022-08-07T23:50:55.658Z,4.20
2022-08-07T23:53:49.703Z,3.72
2022-08-07T23:56:26.636Z,3.30
2022-08-07T23:59:10.828Z,3.90
